Flight Track Log - Related Links

Times and Time Zones

All times are in EDT time to prevent confusion due to time zone crossing. See the RAX81 flight status page for this flight to view local times or setup timezone preferences in your user account.

Time Position Orientation Groundspeed Altitude Reporting Facility
EDT Latitude Longitude Course Direction KTS MPH feet Rate Location/Type
Fri 04:56:17 AM 39.9167 -75.1667 37° Northeast 132 152 2,600  Level Philadelphia TRACON
Fri 04:57:18 AM 39.9333 -75.1333 57° Northeast 170 196 3,900 614 Climbing Philadelphia TRACON
Fri 04:58:24 AM 39.9667 -75.0500 62° Northeast 227 261 3,900  Level Philadelphia TRACON
Fri 04:59:24 AM 40.0167 -75.0000 37° Northeast 203 234 3,900  Level Philadelphia TRACON
Fri 05:00:24 AM 40.0667 -74.9833 14° North 196 226 3,900  Level Philadelphia TRACON
Fri 05:01:24 AM 40.1167 -74.9500 27° Northeast 199 229 3,900 30 Level Philadelphia TRACON
Fri 05:03:46 AM 40.2333 -74.8833 24° Northeast 211 243 4,000 30 Climbing New York TRACON
Fri 05:04:46 AM 40.2833 -74.8333 37° Northeast 216 249 4,000  Level New York TRACON
Fri 05:06:00 AM 40.3381 -74.7596 46° Northeast  Level Estimated
Fri 05:06:46 AM 40.3667 -74.7167 46° Northeast 221 254 4,000  Level New York TRACON
Fri 05:07:40 AM 40.4000 -74.6667 49° Northeast 220 253 3,900 -421 Descending New York TRACON
Fri 05:08:40 AM 40.4500 -74.6167 37° Northeast 218 251 3,200 -300 Descending New York TRACON
Fri 05:10:00 AM 40.5085 -74.5360 46° Northeast  Level Estimated
Fri 05:10:40 AM 40.5333 -74.5000 46° Northeast 210 242 3,000  Level New York TRACON
Fri 05:11:34 AM 40.5667 -74.4500 49° Northeast 207 238 3,000 -211 Level New York TRACON
Fri 05:12:34 AM 40.6167 -74.4000 37° Northeast 206 237 2,600 -474 Descending New York TRACON
Fri 05:13:28 AM 40.6500 -74.3500 49° Northeast 199 229 2,100 -316 Descending New York TRACON
Fri 05:14:28 AM 40.6833 -74.3167 37° Northeast 187 215 2,000 -53 Descending New York TRACON
Fri 05:15:22 AM 40.7167 -74.2667 49° Northeast 194 223 2,000 -250 Level New York TRACON
Fri 05:16:28 AM 40.7500 -74.2000 57° Northeast 202 232 1,500 -263 Descending New York TRACON
Fri 05:17:16 AM 40.7833 -74.1667 37° Northeast 207 238 1,500 -333 Level New York TRACON
Fri 05:18:16 AM 40.8167 -74.1167 49° Northeast 159 183 900 -632 Descending New York TRACON
Fri 05:19:10 AM 40.8333 -74.0833 57° Northeast 113 130 300 -667 Descending New York TRACON
Fri 05:21:00 AM 40.8500 -74.0500 57° Northeast  Level FlightAware Approximate
Fri 05:28:00 AM 40.8501 -74.0608 57° Northeast  Level Estimated

Login

Don't have an account? Register now (free) for customized features, flight alerts, and more!